Time;durP1;ratioP1;P1;durP2;ratioP2;P2;SDS_P1;SDS_P2;PMS_P1;PMS_P2;Temp;Humidity;BMP_temperature;BMP_pressure;BME280_temperature;BME280_humidity;BME280_pressure;Samples;Min_cycle;Max_cycle;Signal;HPM_P1;HPM_P2
2021/04/25 00:00:17;;;;;;;13.23;5.47;;;4.40;99.90;;;;;;2106430;28;20199;-61
2021/04/25 00:01:18;;;;;;;7.82;4.97;;;4.40;99.90;;;;;;2106289;28;20191;-63
2021/04/25 00:02:19;;;;;;;10.38;5.85;;;4.40;99.90;;;;;;2106654;28;20296;-63
2021/04/25 00:03:20;;;;;;;10.83;4.80;;;4.40;99.90;;;;;;2106415;28;20249;-63
2021/04/25 00:04:20;;;;;;;9.03;5.50;;;4.40;99.90;;;;;;2106668;28;20206;-63
2021/04/25 00:05:22;;;;;;;9.13;5.03;;;4.40;99.90;;;;;;2106529;28;20179;-62
2021/04/25 00:06:23;;;;;;;8.30;5.30;;;4.40;99.90;;;;;;2106362;28;20662;-62
2021/04/25 00:07:23;;;;;;;9.83;4.93;;;4.40;99.90;;;;;;2106421;28;20176;-63
2021/04/25 00:08:24;;;;;;;10.67;5.40;;;4.30;99.90;;;;;;2106557;28;20204;-63
2021/04/25 00:09:25;;;;;;;10.07;6.00;;;4.30;99.90;;;;;;2106483;28;20220;-62
2021/04/25 00:10:25;;;;;;;9.53;5.70;;;4.30;99.90;;;;;;2106516;28;20171;-63
2021/04/25 00:11:26;;;;;;;11.77;5.87;;;4.30;99.90;;;;;;2106111;28;20248;-63
2021/04/25 00:12:27;;;;;;;11.90;6.10;;;4.20;99.90;;;;;;2106481;28;20258;-63
2021/04/25 00:13:28;;;;;;;10.63;5.57;;;4.20;99.90;;;;;;2106641;28;20178;-63
2021/04/25 00:14:29;;;;;;;8.85;4.90;;;4.20;99.90;;;;;;2106425;28;20175;-63
2021/04/25 00:15:30;;;;;;;8.07;5.30;;;4.10;99.90;;;;;;2106468;28;20353;-63
2021/04/25 00:16:32;;;;;;;8.88;5.43;;;4.10;99.90;;;;;;2106323;28;20210;-62
2021/04/25 00:17:33;;;;;;;9.88;5.57;;;4.10;99.90;;;;;;2106401;28;20207;-63
2021/04/25 00:18:34;;;;;;;8.97;5.40;;;4.10;99.90;;;;;;2106403;28;20591;-63
2021/04/25 00:19:35;;;;;;;10.30;5.68;;;4.00;99.90;;;;;;2106447;28;20183;-63
2021/04/25 00:20:36;;;;;;;11.00;5.70;;;4.10;99.90;;;;;;2106329;28;20198;-63
2021/04/25 00:21:37;;;;;;;8.60;5.27;;;4.00;99.90;;;;;;2105446;28;20194;-63
2021/04/25 00:22:38;;;;;;;9.03;5.07;;;4.00;99.90;;;;;;2105522;28;20175;-62
2021/04/25 00:23:39;;;;;;;11.05;5.45;;;4.00;99.90;;;;;;2106481;28;20179;-63
2021/04/25 00:24:40;;;;;;;9.43;5.63;;;3.90;99.90;;;;;;2106291;28;20187;-62
2021/04/25 00:25:40;;;;;;;10.13;5.43;;;3.90;99.90;;;;;;2106371;28;20260;-63
2021/04/25 00:26:41;;;;;;;11.07;5.90;;;3.90;99.90;;;;;;2106220;28;20214;-63
2021/04/25 00:27:43;;;;;;;10.03;5.60;;;3.90;99.90;;;;;;2106161;28;20200;-62
2021/04/25 00:28:44;;;;;;;12.77;6.22;;;3.90;99.90;;;;;;2106201;28;20747;-62
2021/04/25 00:29:44;;;;;;;10.53;5.70;;;3.80;99.90;;;;;;2106381;28;20187;-63
2021/04/25 00:30:45;;;;;;;9.70;5.40;;;3.80;99.90;;;;;;2106160;28;20194;-62
2021/04/25 00:31:46;;;;;;;9.33;5.67;;;3.80;99.90;;;;;;2106237;28;20234;-63
2021/04/25 00:32:49;;;;;;;9.40;5.22;;;3.80;99.90;;;;;;2106189;28;20183;-63
2021/04/25 00:33:49;;;;;;;9.70;5.35;;;3.80;99.90;;;;;;2106075;28;20267;-62
2021/04/25 00:34:50;;;;;;;10.27;5.53;;;3.80;99.90;;;;;;2106280;28;20666;-63
2021/04/25 00:35:51;;;;;;;10.33;5.60;;;3.70;99.90;;;;;;2106239;28;20215;-63
2021/04/25 00:36:52;;;;;;;10.33;5.80;;;3.70;99.90;;;;;;2106295;28;20676;-62
2021/04/25 00:37:53;;;;;;;10.07;5.73;;;3.70;99.90;;;;;;2106407;28;20171;-63
2021/04/25 00:38:54;;;;;;;9.83;5.60;;;3.70;99.90;;;;;;2105943;28;20222;-62
2021/04/25 00:39:55;;;;;;;9.30;5.88;;;3.70;99.90;;;;;;2106234;28;20207;-63
2021/04/25 00:40:56;;;;;;;10.40;5.60;;;3.70;99.90;;;;;;2105983;28;20670;-63
2021/04/25 00:41:57;;;;;;;10.05;5.65;;;3.70;99.90;;;;;;2106018;28;20175;-63
2021/04/25 00:42:58;;;;;;;10.50;5.90;;;3.70;99.90;;;;;;2106200;28;20187;-62
2021/04/25 00:43:59;;;;;;;9.73;6.03;;;3.70;99.90;;;;;;2106070;28;20175;-63
2021/04/25 00:45:05;;;;;;;7.90;5.57;;;3.70;99.90;;;;;;2106113;28;20176;-63
2021/04/25 00:46:06;;;;;;;8.77;5.65;;;3.60;99.90;;;;;;2105753;28;20208;-63
2021/04/25 00:47:07;;;;;;;9.82;5.55;;;3.60;99.90;;;;;;2105464;28;20613;-62
2021/04/25 00:48:08;;;;;;;11.73;6.23;;;3.60;99.90;;;;;;2106149;28;20183;-62
2021/04/25 00:49:08;;;;;;;11.27;6.00;;;3.60;99.90;;;;;;2106011;28;20179;-63
2021/04/25 00:50:12;;;;;;;11.13;5.50;;;3.60;99.90;;;;;;2106007;28;20262;-62
2021/04/25 00:51:14;;;;;;;12.43;6.13;;;3.60;99.90;;;;;;2105642;28;20742;-63
2021/04/25 00:52:15;;;;;;;10.18;5.55;;;3.60;99.90;;;;;;2106133;28;20175;-63
2021/04/25 00:53:16;;;;;;;11.43;5.90;;;3.50;99.90;;;;;;2105978;28;20179;-63
2021/04/25 00:54:18;;;;;;;12.43;6.07;;;3.50;99.90;;;;;;2106009;28;20189;-62
2021/04/25 00:55:21;;;;;;;11.55;6.53;;;3.50;99.90;;;;;;2105813;28;20179;-62
2021/04/25 00:56:22;;;;;;;12.32;6.15;;;3.50;99.90;;;;;;2105922;28;20171;-63
2021/04/25 00:57:23;;;;;;;11.65;6.30;;;3.50;99.90;;;;;;2105946;28;20179;-63
2021/04/25 00:58:24;;;;;;;10.90;5.70;;;3.50;99.90;;;;;;2105244;28;20171;-63
2021/04/25 00:59:27;;;;;;;9.97;5.73;;;3.50;99.90;;;;;;2105432;28;20179;-63
2021/04/25 01:00:28;;;;;;;12.15;5.50;;;3.50;99.90;;;;;;2105926;28;20185;-63
2021/04/25 01:01:29;;;;;;;11.02;5.50;;;3.50;99.90;;;;;;2105761;28;20271;-63
2021/04/25 01:02:30;;;;;;;8.40;5.27;;;3.50;99.90;;;;;;2105986;28;20229;-62
2021/04/25 01:03:31;;;;;;;9.27;5.53;;;3.50;99.90;;;;;;2105420;28;20175;-63
2021/04/25 01:04:33;;;;;;;11.60;6.10;;;3.40;99.90;;;;;;2105286;28;20183;-62
2021/04/25 01:05:33;;;;;;;8.88;5.60;;;3.40;99.90;;;;;;2106048;28;20182;-62
2021/04/25 01:06:34;;;;;;;8.90;5.47;;;3.40;99.90;;;;;;2105792;28;20198;-63
2021/04/25 01:07:35;;;;;;;10.90;5.77;;;3.40;99.90;;;;;;2121632;22;20923;-64
2021/04/25 01:08:36;;;;;;;10.03;6.10;;;3.40;99.90;;;;;;2097467;28;20176;-65
2021/04/25 01:09:37;;;;;;;11.00;5.30;;;3.40;99.90;;;;;;2097304;28;20194;-65
2021/04/25 01:10:37;;;;;;;12.67;5.43;;;3.40;99.90;;;;;;2097880;28;20587;-65
2021/04/25 01:11:39;;;;;;;8.60;4.67;;;3.30;99.90;;;;;;2096651;28;20261;-65
2021/04/25 01:12:41;;;;;;;11.18;5.50;;;3.40;99.90;;;;;;2097204;28;20674;-65
2021/04/25 01:13:42;;;;;;;7.95;5.28;;;3.40;99.90;;;;;;2097161;28;20191;-65
2021/04/25 01:14:42;;;;;;;13.10;6.10;;;3.40;99.90;;;;;;2097275;28;20180;-65
2021/04/25 01:15:43;;;;;;;10.10;5.60;;;3.30;99.90;;;;;;2097818;28;20752;-64
2021/04/25 01:16:44;;;;;;;12.03;5.77;;;3.40;99.90;;;;;;2097712;28;20200;-65
2021/04/25 01:17:47;;;;;;;8.57;5.57;;;3.40;99.90;;;;;;2091898;28;20624;-67
2021/04/25 01:18:48;;;;;;;10.55;5.72;;;3.40;99.90;;;;;;2089589;28;20173;-65
2021/04/25 01:19:50;;;;;;;8.97;5.13;;;3.40;99.90;;;;;;2089478;28;20173;-65
2021/04/25 01:20:58;;;;;;;10.80;5.47;;;3.40;99.90;;;;;;2089424;28;20183;-65
2021/04/25 01:22:00;;;;;;;8.48;5.18;;;3.40;99.90;;;;;;2088977;28;20218;-65
2021/04/25 01:23:00;;;;;;;10.35;5.57;;;3.40;99.90;;;;;;2088675;28;20184;-65
2021/04/25 01:24:01;;;;;;;9.33;5.80;;;3.40;99.90;;;;;;2088793;28;20188;-65
2021/04/25 01:25:07;;;;;;;10.67;5.97;;;3.40;99.90;;;;;;2089492;28;20627;-65
2021/04/25 01:26:08;;;;;;;13.70;6.57;;;3.40;99.90;;;;;;2089270;28;20327;-65
2021/04/25 01:27:09;;;;;;;10.00;5.93;;;3.40;99.90;;;;;;2089262;28;20461;-65
2021/04/25 01:28:09;;;;;;;8.87;5.60;;;3.30;99.90;;;;;;2089365;28;20643;-65
2021/04/25 01:29:10;;;;;;;9.43;5.73;;;3.30;99.90;;;;;;2085452;28;20212;-64
2021/04/25 01:30:15;;;;;;;9.57;6.07;;;3.30;99.90;;;;;;2081159;28;20255;-65
2021/04/25 01:31:16;;;;;;;12.43;5.60;;;3.30;99.90;;;;;;2080371;28;20203;-65
2021/04/25 01:32:17;;;;;;;9.38;5.57;;;3.30;99.90;;;;;;2080465;28;20181;-65
2021/04/25 01:33:17;;;;;;;7.07;4.73;;;3.30;99.90;;;;;;2081075;28;20520;-65
2021/04/25 01:34:18;;;;;;;9.90;5.57;;;3.20;99.90;;;;;;2081257;28;20296;-65
2021/04/25 01:35:21;;;;;;;8.50;5.17;;;3.20;99.90;;;;;;2081200;28;20598;-65
2021/04/25 01:36:23;;;;;;;12.77;5.65;;;3.20;99.90;;;;;;2081093;28;20270;-65
2021/04/25 01:37:24;;;;;;;8.90;5.53;;;3.10;99.90;;;;;;2080582;28;20172;-65
2021/04/25 01:38:24;;;;;;;13.75;5.68;;;3.10;99.90;;;;;;2080357;28;20173;-65
2021/04/25 01:39:26;;;;;;;12.80;5.97;;;3.10;99.90;;;;;;2081284;28;20182;-65
2021/04/25 01:40:30;;;;;;;9.52;5.65;;;3.10;99.90;;;;;;2081192;28;20207;-65
2021/04/25 01:41:31;;;;;;;8.95;5.13;;;3.10;99.90;;;;;;2080386;28;20184;-65
2021/04/25 01:42:32;;;;;;;9.33;5.40;;;3.10;99.90;;;;;;2080619;28;20181;-65
2021/04/25 01:43:33;;;;;;;9.40;5.63;;;3.10;99.90;;;;;;2081040;28;20264;-65
2021/04/25 01:44:34;;;;;;;7.88;5.15;;;3.10;99.90;;;;;;2080598;28;20226;-65
2021/04/25 01:45:35;;;;;;;8.73;5.47;;;3.10;99.90;;;;;;2080404;28;20208;-65
2021/04/25 01:46:35;;;;;;;8.67;5.57;;;3.10;99.90;;;;;;2081148;28;20205;-65
2021/04/25 01:47:36;;;;;;;10.93;5.80;;;3.10;99.90;;;;;;2080934;28;20659;-64
2021/04/25 01:48:37;;;;;;;8.77;5.30;;;3.10;99.90;;;;;;2081007;28;20226;-65
2021/04/25 01:49:37;;;;;;;10.73;5.20;;;3.00;99.90;;;;;;2080993;28;20265;-65
2021/04/25 01:50:39;;;;;;;9.40;5.57;;;3.00;99.90;;;;;;2081121;28;20204;-64
2021/04/25 01:51:41;;;;;;;12.43;5.30;;;3.00;99.90;;;;;;2081033;28;20177;-65
2021/04/25 01:52:43;;;;;;;9.65;5.72;;;3.00;99.90;;;;;;2081228;28;20185;-65
2021/04/25 01:53:44;;;;;;;11.63;5.65;;;3.00;99.90;;;;;;2080346;28;20183;-65
2021/04/25 01:54:44;;;;;;;8.60;5.60;;;3.00;99.90;;;;;;2080710;28;20553;-65
2021/04/25 01:55:45;;;;;;;8.30;5.20;;;3.00;99.90;;;;;;2081308;28;20204;-65
2021/04/25 01:56:46;;;;;;;9.60;5.80;;;3.00;99.90;;;;;;2080630;28;20192;-65
2021/04/25 01:57:47;;;;;;;10.93;5.83;;;3.10;99.90;;;;;;2080416;28;20219;-65
2021/04/25 01:58:48;;;;;;;7.63;5.20;;;3.00;99.90;;;;;;2080984;28;20561;-64
2021/04/25 01:59:49;;;;;;;10.23;5.53;;;3.00;99.90;;;;;;2081334;28;20196;-65
2021/04/25 02:00:50;;;;;;;8.87;5.30;;;2.90;99.90;;;;;;2083582;28;20380;-65
2021/04/25 02:01:50;;;;;;;9.50;5.20;;;2.90;99.90;;;;;;2083450;28;20177;-65
2021/04/25 02:02:54;;;;;;;8.77;5.00;;;2.90;99.90;;;;;;2083791;28;20184;-65
2021/04/25 02:03:55;;;;;;;10.88;5.25;;;2.90;99.90;;;;;;2083749;28;20266;-65
2021/04/25 02:04:56;;;;;;;10.37;5.57;;;2.90;99.90;;;;;;2083817;28;20254;-65
2021/04/25 02:05:56;;;;;;;9.03;5.90;;;2.90;99.90;;;;;;2083087;28;20257;-65
2021/04/25 02:06:57;;;;;;;11.47;5.53;;;2.90;99.90;;;;;;2083184;28;20191;-65
2021/04/25 02:07:58;;;;;;;10.00;5.53;;;2.90;99.90;;;;;;2083579;28;20460;-65
2021/04/25 02:08:59;;;;;;;11.20;5.93;;;2.90;99.90;;;;;;2083819;28;20181;-65
2021/04/25 02:10:00;;;;;;;7.87;5.43;;;2.90;99.90;;;;;;2083461;28;20219;-65
2021/04/25 02:11:00;;;;;;;10.57;5.30;;;2.90;99.90;;;;;;2083815;28;20212;-65
2021/04/25 02:12:01;;;;;;;11.20;5.90;;;2.90;99.90;;;;;;2083492;28;20183;-65
2021/04/25 02:13:04;;;;;;;13.07;5.90;;;2.80;99.90;;;;;;2083873;28;20187;-65
2021/04/25 02:14:06;;;;;;;13.38;5.70;;;2.80;99.90;;;;;;2083210;28;20213;-64
2021/04/25 02:15:09;;;;;;;8.20;4.88;;;2.80;99.90;;;;;;2075255;28;20213;-65
2021/04/25 02:16:10;;;;;;;9.48;5.13;;;2.80;99.90;;;;;;2074968;28;20734;-65
2021/04/25 02:17:11;;;;;;;6.70;4.70;;;2.70;99.90;;;;;;2083142;28;20255;-65
2021/04/25 02:18:11;;;;;;;10.40;5.20;;;2.70;99.90;;;;;;2083786;28;20207;-65
2021/04/25 02:19:12;;;;;;;11.10;5.30;;;2.70;99.90;;;;;;2083777;28;20173;-64
2021/04/25 02:20:15;;;;;;;8.60;5.47;;;2.70;99.90;;;;;;2083724;28;20191;-64
2021/04/25 02:21:16;;;;;;;12.25;5.57;;;2.70;99.90;;;;;;2083349;28;20265;-64
2021/04/25 02:22:17;;;;;;;10.03;5.80;;;2.70;99.90;;;;;;2083679;28;20192;-65
2021/04/25 02:23:18;;;;;;;8.27;5.40;;;2.70;99.90;;;;;;2083786;28;20226;-65
2021/04/25 02:24:18;;;;;;;11.67;6.07;;;2.60;99.90;;;;;;2083689;28;20180;-65
2021/04/25 02:25:20;;;;;;;9.93;5.30;;;2.60;99.90;;;;;;2083612;28;20205;-65
2021/04/25 02:26:22;;;;;;;14.07;5.55;;;2.60;99.90;;;;;;2082286;28;20669;-65
2021/04/25 02:27:22;;;;;;;7.95;5.20;;;2.60;99.90;;;;;;2079991;28;20223;-65
2021/04/25 02:28:25;;;;;;;10.03;5.17;;;2.60;99.90;;;;;;2083690;28;20180;-65
2021/04/25 02:29:25;;;;;;;10.55;5.38;;;2.60;99.90;;;;;;2082978;28;20183;-64
2021/04/25 02:30:33;;;;;;;12.43;5.97;;;2.60;99.90;;;;;;2083132;28;20188;-64
2021/04/25 02:31:34;;;;;;;9.63;5.30;;;2.60;99.90;;;;;;2083420;28;20169;-64
2021/04/25 02:32:35;;;;;;;9.23;5.40;;;2.60;99.90;;;;;;2083677;28;20267;-65
2021/04/25 02:33:36;;;;;;;9.38;5.35;;;2.60;99.90;;;;;;2083641;28;20207;-65
2021/04/25 02:34:37;;;;;;;10.30;5.27;;;2.50;99.90;;;;;;2083691;28;20194;-64
2021/04/25 02:35:38;;;;;;;8.65;5.38;;;2.50;99.90;;;;;;2083575;28;20211;-64
2021/04/25 02:36:39;;;;;;;10.57;5.57;;;2.50;99.90;;;;;;2083715;28;20192;-65
2021/04/25 02:37:41;;;;;;;8.77;5.40;;;2.60;99.90;;;;;;2083453;28;20204;-65
2021/04/25 02:38:41;;;;;;;10.55;5.57;;;2.50;99.90;;;;;;2083687;28;20188;-65
2021/04/25 02:39:42;;;;;;;9.97;5.80;;;2.50;99.90;;;;;;2083556;28;20655;-64
2021/04/25 02:40:43;;;;;;;9.47;5.23;;;2.50;99.90;;;;;;2083673;28;20227;-64
2021/04/25 02:41:43;;;;;;;10.27;5.37;;;2.50;99.90;;;;;;2083450;28;20208;-64
2021/04/25 02:42:45;;;;;;;9.83;5.50;;;2.50;99.90;;;;;;2083567;28;20176;-65
2021/04/25 02:43:45;;;;;;;12.13;5.85;;;2.50;99.90;;;;;;2083492;28;20183;-64
2021/04/25 02:44:46;;;;;;;9.43;5.03;;;2.50;99.90;;;;;;2083643;28;20189;-65
2021/04/25 02:45:47;;;;;;;9.77;5.40;;;2.40;99.90;;;;;;2083596;28;20652;-65
2021/04/25 02:46:48;;;;;;;11.23;5.43;;;2.40;99.90;;;;;;2083503;28;20180;-65
2021/04/25 02:47:54;;;;;;;9.40;5.53;;;2.40;99.90;;;;;;2083339;28;20285;-65
2021/04/25 02:48:54;;;;;;;10.63;5.13;;;2.50;99.90;;;;;;2083666;28;20182;-64
2021/04/25 02:49:56;;;;;;;8.60;5.23;;;2.50;99.90;;;;;;2083465;28;20296;-65
2021/04/25 02:50:56;;;;;;;7.55;5.10;;;2.50;99.90;;;;;;2083643;28;20187;-65
2021/04/25 02:51:57;;;;;;;10.93;6.20;;;2.50;99.90;;;;;;2082713;28;20189;-65
2021/04/25 02:52:58;;;;;;;9.83;5.20;;;2.50;99.90;;;;;;2082957;28;20187;-65
2021/04/25 02:53:58;;;;;;;10.83;5.57;;;2.50;99.90;;;;;;2083381;28;20183;-64
2021/04/25 02:54:59;;;;;;;10.70;5.60;;;2.50;99.90;;;;;;2083727;28;20188;-64
2021/04/25 02:56:00;;;;;;;11.00;5.60;;;2.50;99.90;;;;;;2083391;28;20311;-65
2021/04/25 02:57:01;;;;;;;9.07;5.63;;;2.50;99.90;;;;;;2083655;28;20263;-65
2021/04/25 02:58:02;;;;;;;11.77;5.70;;;2.50;99.90;;;;;;2083410;28;20291;-64
2021/04/25 02:59:03;;;;;;;9.93;5.43;;;2.60;99.90;;;;;;2083577;28;20183;-64
2021/04/25 03:00:10;;;;;;;9.13;5.50;;;2.60;99.90;;;;;;2083453;28;20739;-65
2021/04/25 03:01:11;;;;;;;8.80;5.22;;;2.60;99.90;;;;;;2082746;28;20260;-65
2021/04/25 03:02:11;;;;;;;11.40;5.27;;;2.60;99.90;;;;;;2074707;28;20242;-64
2021/04/25 03:03:12;;;;;;;13.03;5.47;;;2.50;99.90;;;;;;2082981;28;20690;-64
2021/04/25 03:04:13;;;;;;;10.63;5.70;;;2.50;99.90;;;;;;2083297;28;20992;-65
2021/04/25 03:05:14;;;;;;;9.33;5.33;;;2.50;99.90;;;;;;2083470;28;20238;-65
2021/04/25 03:06:15;;;;;;;9.82;5.53;;;2.50;99.90;;;;;;2083499;28;20185;-65
2021/04/25 03:07:17;;;;;;;8.87;5.73;;;2.50;99.90;;;;;;2083301;28;20656;-65
2021/04/25 03:08:18;;;;;;;10.25;5.15;;;2.50;99.90;;;;;;2083450;28;20230;-65
2021/04/25 03:09:18;;;;;;;10.13;5.53;;;2.50;99.90;;;;;;2083455;28;20184;-64
2021/04/25 03:10:21;;;;;;;10.20;5.60;;;2.50;99.90;;;;;;2082777;28;20176;-64
2021/04/25 03:11:22;;;;;;;9.07;5.40;;;2.50;99.90;;;;;;2082461;28;20183;-65
2021/04/25 03:12:23;;;;;;;8.23;4.90;;;2.50;99.90;;;;;;2081010;28;20661;-64
2021/04/25 03:13:24;;;;;;;9.83;5.80;;;2.50;99.90;;;;;;2082268;28;20185;-65
2021/04/25 03:14:24;;;;;;;7.63;5.30;;;2.50;99.90;;;;;;2082176;28;20739;-64
2021/04/25 03:15:25;;;;;;;12.17;5.00;;;2.50;99.90;;;;;;2082075;28;20180;-65
2021/04/25 03:16:26;;;;;;;9.00;5.27;;;2.50;99.90;;;;;;2082199;28;20268;-64
2021/04/25 03:17:27;;;;;;;8.30;5.40;;;2.50;99.90;;;;;;2082284;28;20197;-64
2021/04/25 03:18:29;;;;;;;8.10;5.07;;;2.50;99.90;;;;;;2082164;28;20622;-65
2021/04/25 03:19:29;;;;;;;10.88;5.93;;;2.40;99.90;;;;;;2082268;28;20194;-65
2021/04/25 03:20:30;;;;;;;12.07;6.07;;;2.40;99.90;;;;;;2082078;28;20590;-64
2021/04/25 03:21:31;;;;;;;12.00;5.90;;;2.40;99.90;;;;;;2081963;28;20234;-65
2021/04/25 03:22:32;;;;;;;7.17;5.03;;;2.40;99.90;;;;;;2082274;28;20191;-65
2021/04/25 03:23:33;;;;;;;10.10;5.17;;;2.40;99.90;;;;;;2082225;28;20717;-65
2021/04/25 03:24:33;;;;;;;8.60;5.60;;;2.40;99.90;;;;;;2082170;28;20501;-65
2021/04/25 03:25:34;;;;;;;10.43;5.10;;;2.30;99.90;;;;;;2081984;28;20196;-65
2021/04/25 03:26:35;;;;;;;9.77;5.50;;;2.30;99.90;;;;;;2082161;28;20704;-65
2021/04/25 03:27:36;;;;;;;10.50;5.50;;;2.30;99.90;;;;;;2081995;28;20291;-65
2021/04/25 03:28:36;;;;;;;9.98;5.32;;;2.30;99.90;;;;;;2082250;28;20192;-65
2021/04/25 03:29:37;;;;;;;9.33;5.17;;;2.20;99.90;;;;;;2082880;28;20189;-65
2021/04/25 03:30:38;;;;;;;10.20;4.77;;;2.20;99.90;;;;;;2082339;28;20187;-65
2021/04/25 03:31:39;;;;;;;7.00;4.77;;;2.10;99.90;;;;;;2084475;28;20184;-64
2021/04/25 03:32:40;;;;;;;7.55;4.82;;;2.10;99.90;;;;;;2082429;28;20187;-64
2021/04/25 03:33:41;;;;;;;8.25;5.45;;;2.10;99.90;;;;;;2082240;28;20194;-64
2021/04/25 03:34:42;;;;;;;9.23;5.60;;;2.10;99.90;;;;;;2082439;28;20205;-64
2021/04/25 03:35:42;;;;;;;8.50;5.17;;;2.00;99.90;;;;;;2082133;28;20219;-64
2021/04/25 03:36:43;;;;;;;7.53;4.63;;;2.00;99.90;;;;;;2082359;28;20647;-64
2021/04/25 03:37:44;;;;;;;9.90;5.20;;;2.00;99.90;;;;;;2082240;28;20196;-64
2021/04/25 03:38:45;;;;;;;7.38;5.15;;;2.00;99.90;;;;;;2082267;28;20171;-64
2021/04/25 03:39:45;;;;;;;8.37;5.23;;;2.00;99.90;;;;;;2082199;28;20191;-66
2021/04/25 03:40:46;;;;;;;9.00;5.40;;;1.90;99.90;;;;;;2082253;28;20226;-66
2021/04/25 03:41:47;;;;;;;9.50;5.50;;;1.90;99.90;;;;;;2081625;28;20169;-66
2021/04/25 03:42:48;;;;;;;9.93;5.33;;;1.80;99.90;;;;;;2082052;28;20234;-66
2021/04/25 03:43:49;;;;;;;9.23;5.47;;;1.80;99.90;;;;;;2081844;28;20269;-65
2021/04/25 03:44:49;;;;;;;9.17;5.60;;;1.80;99.90;;;;;;2081954;28;20207;-65
2021/04/25 03:45:50;;;;;;;9.30;5.27;;;1.80;99.90;;;;;;2081921;28;20274;-65
2021/04/25 03:46:51;;;;;;;10.57;5.97;;;1.80;99.90;;;;;;2082098;28;20322;-65
2021/04/25 03:47:52;;;;;;;12.47;5.40;;;1.80;99.90;;;;;;2081752;28;20587;-66
2021/04/25 03:48:53;;;;;;;9.75;5.60;;;1.80;99.90;;;;;;2081932;28;20192;-66
2021/04/25 03:49:54;;;;;;;10.80;5.53;;;1.80;99.90;;;;;;2081923;28;20188;-65
2021/04/25 03:50:54;;;;;;;10.10;5.33;;;1.80;99.90;;;;;;2082198;28;20185;-66
2021/04/25 03:51:55;;;;;;;10.30;6.10;;;1.70;99.90;;;;;;2081736;28;20219;-65
2021/04/25 03:52:56;;;;;;;9.37;5.53;;;1.70;99.90;;;;;;2081152;28;20601;-66
2021/04/25 03:53:57;;;;;;;9.30;5.53;;;1.80;99.90;;;;;;2073147;28;20185;-65
2021/04/25 03:54:58;;;;;;;9.60;5.95;;;1.80;99.90;;;;;;2081379;28;20339;-65
2021/04/25 03:55:58;;;;;;;11.47;5.77;;;1.80;99.90;;;;;;2081689;28;20211;-66
2021/04/25 03:57:00;;;;;;;9.37;5.43;;;1.80;99.90;;;;;;2082008;28;20212;-65
2021/04/25 03:58:01;;;;;;;10.32;5.57;;;1.80;99.90;;;;;;2080972;28;20276;-66
2021/04/25 03:59:02;;;;;;;10.57;5.93;;;1.80;99.90;;;;;;2081249;28;20279;-65
2021/04/25 04:00:11;;;;;;;8.55;5.57;;;1.90;99.90;;;;;;2081246;28;20219;-65
2021/04/25 04:01:11;;;;;;;9.00;5.30;;;1.90;99.90;;;;;;2081477;28;20260;-66
2021/04/25 04:02:12;;;;;;;10.03;5.60;;;1.90;99.90;;;;;;2081826;28;20647;-66
2021/04/25 04:03:13;;;;;;;11.80;5.67;;;1.90;99.90;;;;;;2081760;28;20249;-66
2021/04/25 04:04:13;;;;;;;9.47;5.50;;;1.80;99.90;;;;;;2081664;28;20180;-65
2021/04/25 04:05:14;;;;;;;10.90;6.00;;;1.80;99.90;;;;;;2081724;28;20647;-66
2021/04/25 04:06:15;;;;;;;7.63;5.33;;;1.80;99.90;;;;;;2081911;28;20184;-65
2021/04/25 04:07:16;;;;;;;9.40;5.73;;;1.80;99.90;;;;;;2081634;28;20801;-66
2021/04/25 04:08:16;;;;;;;10.17;5.50;;;1.80;99.90;;;;;;2081839;28;20253;-65
2021/04/25 04:09:18;;;;;;;9.93;5.73;;;1.90;99.90;;;;;;2081482;28;20219;-65
2021/04/25 04:10:18;;;;;;;9.90;5.93;;;1.90;99.90;;;;;;2081805;28;20183;-65
2021/04/25 04:11:19;;;;;;;8.30;5.70;;;1.90;99.90;;;;;;2081502;28;20185;-66
2021/04/25 04:12:20;;;;;;;11.63;5.93;;;1.90;99.90;;;;;;2081754;28;20176;-66
2021/04/25 04:13:20;;;;;;;8.83;5.53;;;1.80;99.90;;;;;;2081724;28;20635;-66
2021/04/25 04:14:21;;;;;;;10.10;6.20;;;1.80;99.90;;;;;;2081613;28;20187;-66
2021/04/25 04:15:22;;;;;;;8.67;5.60;;;1.80;99.90;;;;;;2081633;28;20176;-66
2021/04/25 04:16:25;;;;;;;9.37;5.30;;;1.80;99.90;;;;;;2081755;28;20710;-66
2021/04/25 04:17:25;;;;;;;8.15;5.22;;;1.80;99.90;;;;;;2080983;28;20681;-66
2021/04/25 04:18:26;;;;;;;11.20;5.40;;;1.80;99.90;;;;;;2081291;28;20196;-65
2021/04/25 04:19:27;;;;;;;7.17;4.43;;;1.80;99.90;;;;;;2081729;28;20177;-66
2021/04/25 04:20:28;;;;;;;8.77;5.60;;;1.80;99.90;;;;;;2081679;28;20187;-66
2021/04/25 04:21:28;;;;;;;7.57;4.67;;;1.80;99.90;;;;;;2081438;28;20639;-65
2021/04/25 04:22:29;;;;;;;9.73;5.47;;;1.80;99.90;;;;;;2081737;28;20186;-66
2021/04/25 04:23:30;;;;;;;10.60;5.27;;;1.70;99.90;;;;;;2081274;28;20186;-65
2021/04/25 04:24:30;;;;;;;9.53;5.10;;;1.80;99.90;;;;;;2081613;28;20184;-66
2021/04/25 04:25:31;;;;;;;10.40;5.10;;;1.70;99.90;;;;;;2081334;28;20275;-65
2021/04/25 04:26:32;;;;;;;10.60;5.57;;;1.70;99.90;;;;;;2081666;28;20175;-66
2021/04/25 04:27:33;;;;;;;9.57;5.87;;;1.70;99.90;;;;;;2081569;28;20232;-66
2021/04/25 04:28:33;;;;;;;8.18;5.15;;;1.70;99.90;;;;;;2081689;28;20177;-66
2021/04/25 04:29:34;;;;;;;11.00;5.73;;;1.70;99.90;;;;;;2081501;28;20210;-66
2021/04/25 04:30:35;;;;;;;7.80;5.07;;;1.70;99.90;;;;;;2081615;28;20233;-66
2021/04/25 04:31:36;;;;;;;9.43;5.73;;;1.70;99.90;;;;;;2081301;28;20242;-66
2021/04/25 04:32:36;;;;;;;9.73;5.10;;;1.70;99.90;;;;;;2081597;28;20256;-65
2021/04/25 04:33:37;;;;;;;12.10;6.33;;;1.70;99.90;;;;;;2081518;28;20181;-70
2021/04/25 04:34:38;;;;;;;10.23;5.50;;;1.70;99.90;;;;;;2081615;28;20552;-65
2021/04/25 04:35:38;;;;;;;10.07;5.53;;;1.70;99.90;;;;;;2081400;28;20728;-65
2021/04/25 04:36:39;;;;;;;9.77;5.10;;;1.70;99.90;;;;;;2081455;28;20266;-65
2021/04/25 04:37:40;;;;;;;10.70;5.43;;;1.70;99.90;;;;;;2081572;28;20260;-66
2021/04/25 04:38:41;;;;;;;7.13;5.07;;;1.70;99.90;;;;;;2081580;28;20524;-65
2021/04/25 04:39:41;;;;;;;9.50;5.63;;;1.70;99.90;;;;;;2081551;28;20187;-66
2021/04/25 04:40:42;;;;;;;7.07;4.90;;;1.70;99.90;;;;;;2081591;28;20184;-66
2021/04/25 04:41:43;;;;;;;6.80;4.93;;;1.70;99.90;;;;;;2081206;28;20182;-65
2021/04/25 04:42:43;;;;;;;8.70;4.93;;;1.70;99.90;;;;;;2081492;28;20263;-65
2021/04/25 04:43:44;;;;;;;8.23;4.90;;;1.70;99.90;;;;;;2081488;28;20211;-65
2021/04/25 04:44:45;;;;;;;9.93;4.90;;;1.80;99.90;;;;;;2081507;28;20183;-66
2021/04/25 04:45:45;;;;;;;6.27;4.53;;;1.80;99.90;;;;;;2081439;28;20211;-66
2021/04/25 04:46:46;;;;;;;8.53;5.07;;;1.80;99.90;;;;;;2081299;28;20271;-66
2021/04/25 04:47:47;;;;;;;9.00;4.33;;;1.80;99.90;;;;;;2080822;28;20204;-65
2021/04/25 04:48:48;;;;;;;8.35;4.00;;;1.80;99.90;;;;;;2080850;28;20191;-65
2021/04/25 04:49:49;;;;;;;6.57;4.53;;;1.70;99.90;;;;;;2080984;28;20187;-66
2021/04/25 04:50:49;;;;;;;8.43;4.47;;;1.70;99.90;;;;;;2081419;28;20655;-65
2021/04/25 04:51:50;;;;;;;10.00;5.37;;;1.70;99.90;;;;;;2081464;28;20271;-66
2021/04/25 04:52:51;;;;;;;8.23;5.27;;;1.70;99.90;;;;;;2081220;28;20847;-66
2021/04/25 04:53:52;;;;;;;8.17;4.93;;;1.70;99.90;;;;;;2081559;28;20187;-65
2021/04/25 04:54:52;;;;;;;8.20;5.27;;;1.70;99.90;;;;;;2081356;28;20206;-65
2021/04/25 04:55:53;;;;;;;11.47;5.27;;;1.70;99.90;;;;;;2081557;28;20276;-66
2021/04/25 04:56:54;;;;;;;9.47;5.10;;;1.80;99.90;;;;;;2081314;28;20639;-65
2021/04/25 04:57:54;;;;;;;7.60;4.47;;;1.80;99.90;;;;;;2081226;28;20204;-65
2021/04/25 04:58:55;;;;;;;6.63;4.27;;;1.90;99.90;;;;;;2081505;28;20179;-66
2021/04/25 04:59:56;;;;;;;9.00;5.27;;;1.90;99.90;;;;;;2081422;28;20379;-65
2021/04/25 05:00:56;;;;;;;10.47;5.77;;;1.90;99.90;;;;;;2081405;28;20270;-66
2021/04/25 05:01:57;;;;;;;9.87;5.23;;;1.90;99.90;;;;;;2081236;28;20256;-66
2021/04/25 05:02:58;;;;;;;9.53;5.10;;;1.90;99.90;;;;;;2081217;28;20663;-65
2021/04/25 05:03:58;;;;;;;9.93;4.90;;;2.00;99.90;;;;;;2081446;28;20191;-65
2021/04/25 05:04:59;;;;;;;7.90;4.50;;;2.00;99.90;;;;;;2081327;28;20271;-65
2021/04/25 05:06:00;;;;;;;9.37;4.90;;;2.00;99.90;;;;;;2081416;28;20190;-66
2021/04/25 05:07:01;;;;;;;8.43;4.73;;;2.10;99.90;;;;;;2081279;28;20227;-65
2021/04/25 05:08:02;;;;;;;9.80;5.00;;;2.10;99.90;;;;;;2081123;28;20222;-65
2021/04/25 05:09:03;;;;;;;10.20;5.60;;;2.10;99.90;;;;;;2081086;28;20191;-66
2021/04/25 05:10:06;;;;;;;9.20;4.82;;;2.20;99.90;;;;;;2081531;28;20184;-66
2021/04/25 05:11:07;;;;;;;11.02;5.28;;;2.20;99.90;;;;;;2081159;28;20275;-66
2021/04/25 05:12:08;;;;;;;9.23;5.20;;;2.30;99.90;;;;;;2081241;28;20190;-66
2021/04/25 05:13:10;;;;;;;11.23;4.93;;;2.30;99.90;;;;;;2081220;28;20184;-65
2021/04/25 05:14:10;;;;;;;9.90;5.70;;;2.30;99.90;;;;;;2081194;28;20323;-66
2021/04/25 05:15:11;;;;;;;8.67;4.87;;;2.30;99.90;;;;;;2081223;28;20184;-66
2021/04/25 05:16:12;;;;;;;8.43;5.10;;;2.40;99.90;;;;;;2081206;28;20203;-66
2021/04/25 05:17:13;;;;;;;8.47;5.17;;;2.50;99.90;;;;;;2080369;28;20199;-66
2021/04/25 05:18:13;;;;;;;9.87;4.50;;;2.50;99.90;;;;;;2080676;28;20227;-66
2021/04/25 05:19:14;;;;;;;7.60;4.83;;;2.50;99.90;;;;;;2081058;28;20200;-66
2021/04/25 05:20:15;;;;;;;11.97;5.00;;;2.50;99.90;;;;;;2081250;28;20176;-66